sensor_id;sensor_type;location;lat;lon;timestamp;pressure;altitude;pressure_sealevel;temperature;humidity
71966;BME280;59836;52.132;5.442;2022-12-18T00:01:20;102954.97;;;-2.90;89.29
71966;BME280;59836;52.132;5.442;2022-12-18T00:03:47;102945.06;;;-2.88;88.79
71966;BME280;59836;52.132;5.442;2022-12-18T00:06:15;102948.94;;;-2.92;88.55
71966;BME280;59836;52.132;5.442;2022-12-18T00:08:42;102944.16;;;-2.99;88.84
71966;BME280;59836;52.132;5.442;2022-12-18T00:11:15;102936.94;;;-3.08;88.87
71966;BME280;59836;52.132;5.442;2022-12-18T00:13:43;102933.31;;;-3.07;88.66
71966;BME280;59836;52.132;5.442;2022-12-18T00:16:11;102933.19;;;-3.05;88.79
71966;BME280;59836;52.132;5.442;2022-12-18T00:18:39;102930.66;;;-3.07;88.91
71966;BME280;59836;52.132;5.442;2022-12-18T00:21:08;102937.53;;;-3.04;88.80
71966;BME280;59836;52.132;5.442;2022-12-18T00:23:36;102938.13;;;-3.01;89.00
71966;BME280;59836;52.132;5.442;2022-12-18T00:26:06;102939.13;;;-3.13;88.85
71966;BME280;59836;52.132;5.442;2022-12-18T00:28:33;102942.63;;;-3.13;88.93
71966;BME280;59836;52.132;5.442;2022-12-18T00:31:08;102942.50;;;-3.11;88.90
71966;BME280;59836;52.132;5.442;2022-12-18T00:33:36;102943.59;;;-3.14;89.06
71966;BME280;59836;52.132;5.442;2022-12-18T00:36:05;102935.50;;;-3.12;89.33
71966;BME280;59836;52.132;5.442;2022-12-18T00:38:33;102927.41;;;-3.11;88.60
71966;BME280;59836;52.132;5.442;2022-12-18T00:40:59;102931.25;;;-3.03;89.11
71966;BME280;59836;52.132;5.442;2022-12-18T00:43:26;102933.06;;;-3.04;88.74
71966;BME280;59836;52.132;5.442;2022-12-18T00:45:53;102933.91;;;-3.03;88.70
71966;BME280;59836;52.132;5.442;2022-12-18T00:48:19;102945.63;;;-3.06;88.92
71966;BME280;59836;52.132;5.442;2022-12-18T00:50:47;102943.69;;;-3.04;88.50
71966;BME280;59836;52.132;5.442;2022-12-18T00:53:15;102924.38;;;-3.06;88.76
71966;BME280;59836;52.132;5.442;2022-12-18T00:55:42;102929.81;;;-3.07;88.49
71966;BME280;59836;52.132;5.442;2022-12-18T00:58:09;102933.31;;;-3.07;88.67
71966;BME280;59836;52.132;5.442;2022-12-18T01:00:36;102935.00;;;-3.06;88.65
71966;BME280;59836;52.132;5.442;2022-12-18T01:03:03;102928.97;;;-3.08;88.53
71966;BME280;59836;52.132;5.442;2022-12-18T01:05:31;102930.44;;;-3.15;88.45
71966;BME280;59836;52.132;5.442;2022-12-18T01:07:57;102921.78;;;-3.17;88.37
71966;BME280;59836;52.132;5.442;2022-12-18T01:10:25;102921.06;;;-3.19;88.74
71966;BME280;59836;52.132;5.442;2022-12-18T01:12:51;102917.69;;;-3.21;88.81
71966;BME280;59836;52.132;5.442;2022-12-18T01:15:18;102918.66;;;-3.22;88.46
71966;BME280;59836;52.132;5.442;2022-12-18T01:17:45;102928.19;;;-3.20;88.73
71966;BME280;59836;52.132;5.442;2022-12-18T01:20:12;102926.50;;;-3.21;88.83
71966;BME280;59836;52.132;5.442;2022-12-18T01:22:38;102928.31;;;-3.21;88.54
71966;BME280;59836;52.132;5.442;2022-12-18T01:25:05;102931.22;;;-3.24;89.03
71966;BME280;59836;52.132;5.442;2022-12-18T01:27:33;102928.69;;;-3.26;88.61
71966;BME280;59836;52.132;5.442;2022-12-18T01:29:59;102938.09;;;-3.22;88.72
71966;BME280;59836;52.132;5.442;2022-12-18T01:32:26;102945.81;;;-3.19;88.81
71966;BME280;59836;52.132;5.442;2022-12-18T01:34:52;102951.69;;;-3.15;88.83
71966;BME280;59836;52.132;5.442;2022-12-18T01:37:18;102949.16;;;-3.17;89.11
71966;BME280;59836;52.132;5.442;2022-12-18T01:39:45;102951.94;;;-3.18;88.40
71966;BME280;59836;52.132;5.442;2022-12-18T01:42:13;102947.84;;;-3.22;88.78
71966;BME280;59836;52.132;5.442;2022-12-18T01:44:57;102947.38;;;-3.28;88.48
71966;BME280;59836;52.132;5.442;2022-12-18T01:47:35;102951.00;;;-3.29;88.85
71966;BME280;59836;52.132;5.442;2022-12-18T01:50:07;102952.44;;;-3.24;88.51
71966;BME280;59836;52.132;5.442;2022-12-18T01:52:35;102939.31;;;-3.26;88.60
71966;BME280;59836;52.132;5.442;2022-12-18T01:55:05;102941.25;;;-3.28;88.73
71966;BME280;59836;52.132;5.442;2022-12-18T01:57:32;102944.88;;;-3.29;88.66
71966;BME280;59836;52.132;5.442;2022-12-18T02:00:01;102949.56;;;-3.33;88.31
71966;BME280;59836;52.132;5.442;2022-12-18T02:02:30;102948.00;;;-3.35;88.68
71966;BME280;59836;52.132;5.442;2022-12-18T02:04:57;102955.97;;;-3.35;88.69
71966;BME280;59836;52.132;5.442;2022-12-18T02:10:04;102957.53;;;-3.44;88.05
71966;BME280;59836;52.132;5.442;2022-12-18T02:12:46;102962.13;;;-3.46;88.12
71966;BME280;59836;52.132;5.442;2022-12-18T02:15:39;102959.25;;;-3.54;88.02
71966;BME280;59836;52.132;5.442;2022-12-18T02:18:13;102956.00;;;-3.58;87.79
71966;BME280;59836;52.132;5.442;2022-12-18T02:26:26;102964.81;;;-3.69;87.97
71966;BME280;59836;52.132;5.442;2022-12-18T02:29:03;102963.25;;;-3.72;87.52
71966;BME280;59836;52.132;5.442;2022-12-18T02:31:36;102965.31;;;-3.75;87.84
71966;BME280;59836;52.132;5.442;2022-12-18T02:34:06;102969.03;;;-3.78;87.44
71966;BME280;59836;52.132;5.442;2022-12-18T02:36:36;102963.25;;;-3.83;87.83
71966;BME280;59836;52.132;5.442;2022-12-18T02:39:07;102956.41;;;-3.86;87.27
71966;BME280;59836;52.132;5.442;2022-12-18T02:41:35;102959.06;;;-3.86;87.65
71966;BME280;59836;52.132;5.442;2022-12-18T02:44:09;102952.31;;;-3.90;87.28
71966;BME280;59836;52.132;5.442;2022-12-18T02:46:41;102954.22;;;-3.92;87.12
71966;BME280;59836;52.132;5.442;2022-12-18T02:49:42;102944.94;;;-3.97;86.97
71966;BME280;59836;52.132;5.442;2022-12-18T02:57:53;102938.66;;;-4.08;86.53
71966;BME280;59836;52.132;5.442;2022-12-18T03:00:23;102938.09;;;-4.11;87.53
71966;BME280;59836;52.132;5.442;2022-12-18T03:02:59;102938.09;;;-4.11;86.81
71966;BME280;59836;52.132;5.442;2022-12-18T03:05:42;102933.03;;;-4.15;86.33
71966;BME280;59836;52.132;5.442;2022-12-18T03:08:27;102927.09;;;-4.18;86.96
71966;BME280;59836;52.132;5.442;2022-12-18T03:11:02;102914.00;;;-4.20;86.45
71966;BME280;59836;52.132;5.442;2022-12-18T03:14:04;102924.81;;;-4.23;87.27
71966;BME280;59836;52.132;5.442;2022-12-18T03:16:34;102921.44;;;-4.25;86.62
71966;BME280;59836;52.132;5.442;2022-12-18T03:19:05;102924.09;;;-4.25;86.93
71966;BME280;59836;52.132;5.442;2022-12-18T03:21:40;102920.97;;;-4.30;86.67
71966;BME280;59836;52.132;5.442;2022-12-18T03:24:09;102916.63;;;-4.31;86.70
71966;BME280;59836;52.132;5.442;2022-12-18T03:26:41;102919.28;;;-4.31;87.11
71966;BME280;59836;52.132;5.442;2022-12-18T03:29:18;102913.00;;;-4.30;86.75
71966;BME280;59836;52.132;5.442;2022-12-18T03:31:55;102906.03;;;-4.31;86.66
71966;BME280;59836;52.132;5.442;2022-12-18T03:34:34;102910.50;;;-4.32;86.61
71966;BME280;59836;52.132;5.442;2022-12-18T03:37:01;102899.03;;;-4.32;86.71
71966;BME280;59836;52.132;5.442;2022-12-18T03:39:28;102897.34;;;-4.33;86.79
71966;BME280;59836;52.132;5.442;2022-12-18T03:42:08;102893.16;;;-4.36;87.24
71966;BME280;59836;52.132;5.442;2022-12-18T03:44:57;102888.69;;;-4.35;86.93
71966;BME280;59836;52.132;5.442;2022-12-18T03:47:29;102883.41;;;-4.35;86.75
71966;BME280;59836;52.132;5.442;2022-12-18T03:50:12;102892.31;;;-4.36;86.26
71966;BME280;59836;52.132;5.442;2022-12-18T03:52:57;102886.19;;;-4.37;86.33
71966;BME280;59836;52.132;5.442;2022-12-18T03:55:27;102886.19;;;-4.37;86.37
71966;BME280;59836;52.132;5.442;2022-12-18T03:57:57;102888.94;;;-4.38;86.59
71966;BME280;59836;52.132;5.442;2022-12-18T04:00:25;102890.63;;;-4.37;86.20
71966;BME280;59836;52.132;5.442;2022-12-18T04:02:53;102887.00;;;-4.36;86.59
71966;BME280;59836;52.132;5.442;2022-12-18T04:05:22;102890.63;;;-4.37;86.44
71966;BME280;59836;52.132;5.442;2022-12-18T04:07:51;102875.81;;;-4.40;86.26
71966;BME280;59836;52.132;5.442;2022-12-18T04:10:18;102879.44;;;-4.41;86.45
71966;BME280;59836;52.132;5.442;2022-12-18T04:12:44;102872.31;;;-4.40;86.71
71966;BME280;59836;52.132;5.442;2022-12-18T04:15:12;102876.66;;;-4.39;86.36
71966;BME280;59836;52.132;5.442;2022-12-18T04:17:46;102867.00;;;-4.40;86.41
71966;BME280;59836;52.132;5.442;2022-12-18T04:20:13;102855.69;;;-4.42;86.16
71966;BME280;59836;52.132;5.442;2022-12-18T04:22:40;102861.13;;;-4.44;86.49
71966;BME280;59836;52.132;5.442;2022-12-18T04:25:06;102866.53;;;-4.46;86.47
71966;BME280;59836;52.132;5.442;2022-12-18T04:27:33;102856.06;;;-4.47;85.78
71966;BME280;59836;52.132;5.442;2022-12-18T04:30:00;102853.41;;;-4.47;86.08
71966;BME280;59836;52.132;5.442;2022-12-18T04:32:27;102849.91;;;-4.48;85.93
71966;BME280;59836;52.132;5.442;2022-12-18T04:34:53;102851.59;;;-4.47;86.22
71966;BME280;59836;52.132;5.442;2022-12-18T04:37:19;102854.25;;;-4.47;86.03
71966;BME280;59836;52.132;5.442;2022-12-18T04:39:46;102853.03;;;-4.42;86.09
71966;BME280;59836;52.132;5.442;2022-12-18T04:42:12;102852.09;;;-4.41;85.97
71966;BME280;59836;52.132;5.442;2022-12-18T04:44:39;102854.88;;;-4.43;85.51
71966;BME280;59836;52.132;5.442;2022-12-18T04:47:05;102859.94;;;-4.40;85.80
71966;BME280;59836;52.132;5.442;2022-12-18T04:49:31;102869.66;;;-4.40;85.69
71966;BME280;59836;52.132;5.442;2022-12-18T04:51:58;102879.06;;;-4.36;85.79
71966;BME280;59836;52.132;5.442;2022-12-18T04:54:24;102884.34;;;-4.36;85.72
71966;BME280;59836;52.132;5.442;2022-12-18T04:56:51;102883.41;;;-4.35;85.86
71966;BME280;59836;52.132;5.442;2022-12-18T04:59:18;102883.53;;;-4.37;85.76
71966;BME280;59836;52.132;5.442;2022-12-18T05:01:45;102883.63;;;-4.38;85.45
71966;BME280;59836;52.132;5.442;2022-12-18T05:04:12;102887.97;;;-4.37;85.41
71966;BME280;59836;52.132;5.442;2022-12-18T05:06:38;102890.38;;;-4.34;85.83
71966;BME280;59836;52.132;5.442;2022-12-18T05:09:05;102901.22;;;-4.37;85.00
71966;BME280;59836;52.132;5.442;2022-12-18T05:11:31;102900.16;;;-4.35;85.33
71966;BME280;59836;52.132;5.442;2022-12-18T05:13:57;102910.13;;;-4.38;85.13
71966;BME280;59836;52.132;5.442;2022-12-18T05:16:24;102905.06;;;-4.41;85.35
71966;BME280;59836;52.132;5.442;2022-12-18T05:18:50;102908.66;;;-4.42;84.99
71966;BME280;59836;52.132;5.442;2022-12-18T05:21:17;102912.50;;;-4.47;84.92
71966;BME280;59836;52.132;5.442;2022-12-18T05:23:43;102910.22;;;-4.51;85.08
71966;BME280;59836;52.132;5.442;2022-12-18T05:26:14;102914.06;;;-4.55;84.68
71966;BME280;59836;52.132;5.442;2022-12-18T05:28:41;102918.75;;;-4.59;84.83
71966;BME280;59836;52.132;5.442;2022-12-18T05:31:08;102930.66;;;-4.65;84.59
71966;BME280;59836;52.132;5.442;2022-12-18T05:33:34;102939.78;;;-4.69;84.61
71966;BME280;59836;52.132;5.442;2022-12-18T05:36:03;102940.03;;;-4.72;84.65
71966;BME280;59836;52.132;5.442;2022-12-18T05:38:31;102934.97;;;-4.75;84.87
71966;BME280;59836;52.132;5.442;2022-12-18T05:40:58;102943.00;;;-4.77;85.24
71966;BME280;59836;52.132;5.442;2022-12-18T05:43:26;102929.91;;;-4.78;84.98
71966;BME280;59836;52.132;5.442;2022-12-18T05:45:53;102919.53;;;-4.81;85.35
71966;BME280;59836;52.132;5.442;2022-12-18T05:48:20;102914.25;;;-4.81;85.29
71966;BME280;59836;52.132;5.442;2022-12-18T05:50:48;102906.44;;;-4.83;85.16
71966;BME280;59836;52.132;5.442;2022-12-18T05:53:18;102901.16;;;-4.83;85.13
71966;BME280;59836;52.132;5.442;2022-12-18T05:55:46;102895.00;;;-4.83;85.15
71966;BME280;59836;52.132;5.442;2022-12-18T05:58:13;102896.81;;;-4.84;84.94
71966;BME280;59836;52.132;5.442;2022-12-18T06:00:42;102899.56;;;-4.85;85.20
71966;BME280;59836;52.132;5.442;2022-12-18T06:03:10;102892.72;;;-4.88;85.41
71966;BME280;59836;52.132;5.442;2022-12-18T06:05:42;102890.16;;;-4.90;85.37
71966;BME280;59836;52.132;5.442;2022-12-18T06:08:09;102892.22;;;-4.93;85.16
71966;BME280;59836;52.132;5.442;2022-12-18T06:10:37;102893.16;;;-4.94;85.39
71966;BME280;59836;52.132;5.442;2022-12-18T06:13:04;102888.09;;;-4.97;84.98
71966;BME280;59836;52.132;5.442;2022-12-18T06:15:31;102883.03;;;-5.00;84.50
71966;BME280;59836;52.132;5.442;2022-12-18T06:17:57;102885.78;;;-5.02;84.75
71966;BME280;59836;52.132;5.442;2022-12-18T06:20:23;102873.50;;;-5.03;84.83
71966;BME280;59836;52.132;5.442;2022-12-18T06:22:57;102872.69;;;-5.04;85.05
71966;BME280;59836;52.132;5.442;2022-12-18T06:25:23;102867.41;;;-5.04;84.79
71966;BME280;59836;52.132;5.442;2022-12-18T06:27:49;102877.25;;;-5.06;85.12
71966;BME280;59836;52.132;5.442;2022-12-18T06:30:16;102873.00;;;-5.08;84.94
71966;BME280;59836;52.132;5.442;2022-12-18T06:32:42;102866.41;;;-5.14;84.58
71966;BME280;59836;52.132;5.442;2022-12-18T06:35:09;102863.97;;;-5.17;84.78
71966;BME280;59836;52.132;5.442;2022-12-18T06:37:36;102861.56;;;-5.20;84.81
71966;BME280;59836;52.132;5.442;2022-12-18T06:40:02;102860.69;;;-5.21;84.72
71966;BME280;59836;52.132;5.442;2022-12-18T06:42:29;102855.53;;;-5.22;84.51
71966;BME280;59836;52.132;5.442;2022-12-18T06:44:55;102859.97;;;-5.23;84.59
71966;BME280;59836;52.132;5.442;2022-12-18T06:47:22;102857.34;;;-5.23;84.80
71966;BME280;59836;52.132;5.442;2022-12-18T06:49:49;102846.88;;;-5.24;84.38
71966;BME280;59836;52.132;5.442;2022-12-18T06:52:16;102837.25;;;-5.25;84.48
71966;BME280;59836;52.132;5.442;2022-12-18T06:54:42;102830.28;;;-5.26;85.05
71966;BME280;59836;52.132;5.442;2022-12-18T06:57:08;102839.19;;;-5.27;85.05
71966;BME280;59836;52.132;5.442;2022-12-18T06:59:35;102830.38;;;-5.28;84.46
71966;BME280;59836;52.132;5.442;2022-12-18T07:02:01;102829.69;;;-5.30;84.77
71966;BME280;59836;52.132;5.442;2022-12-18T07:04:29;102823.75;;;-5.34;84.85
71966;BME280;59836;52.132;5.442;2022-12-18T07:06:55;102823.03;;;-5.36;84.69
71966;BME280;59836;52.132;5.442;2022-12-18T07:09:22;102825.69;;;-5.36;84.87
71966;BME280;59836;52.132;5.442;2022-12-18T07:11:49;102830.25;;;-5.38;84.57
71966;BME280;59836;52.132;5.442;2022-12-18T07:14:15;102825.81;;;-5.37;84.94
71966;BME280;59836;52.132;5.442;2022-12-18T07:16:41;102832.06;;;-5.38;84.70
71966;BME280;59836;52.132;5.442;2022-12-18T07:19:08;102811.00;;;-5.40;85.06
71966;BME280;59836;52.132;5.442;2022-12-18T07:21:34;102809.22;;;-5.39;84.61
71966;BME280;59836;52.132;5.442;2022-12-18T07:24:01;102816.41;;;-5.41;84.57
71966;BME280;59836;52.132;5.442;2022-12-18T07:26:27;102819.16;;;-5.43;84.76
71966;BME280;59836;52.132;5.442;2022-12-18T07:28:55;102825.06;;;-5.39;85.10
71966;BME280;59836;52.132;5.442;2022-12-18T07:31:23;102824.94;;;-5.38;84.98
71966;BME280;59836;52.132;5.442;2022-12-18T07:33:50;102811.72;;;-5.38;84.96
71966;BME280;59836;52.132;5.442;2022-12-18T07:36:17;102797.69;;;-5.38;84.55
71966;BME280;59836;52.132;5.442;2022-12-18T07:38:46;102794.16;;;-5.39;85.18
71966;BME280;59836;52.132;5.442;2022-12-18T07:41:13;102795.88;;;-5.38;84.79
71966;BME280;59836;52.132;5.442;2022-12-18T07:43:41;102791.44;;;-5.37;85.16
71966;BME280;59836;52.132;5.442;2022-12-18T07:46:08;102790.34;;;-5.35;84.63
71966;BME280;59836;52.132;5.442;2022-12-18T07:48:35;102778.06;;;-5.36;85.01
71966;BME280;59836;52.132;5.442;2022-12-18T07:51:04;102780.50;;;-5.32;85.24
71966;BME280;59836;52.132;5.442;2022-12-18T07:53:32;102783.88;;;-5.30;85.21
71966;BME280;59836;52.132;5.442;2022-12-18T07:56:01;102768.00;;;-5.30;84.81
71966;BME280;59836;52.132;5.442;2022-12-18T07:58:48;102766.22;;;-5.30;85.49
71966;BME280;59836;52.132;5.442;2022-12-18T08:01:14;102760.66;;;-5.27;85.69
71966;BME280;59836;52.132;5.442;2022-12-18T08:03:42;102764.03;;;-5.25;84.75
71966;BME280;59836;52.132;5.442;2022-12-18T08:06:09;102764.66;;;-5.21;85.06
71966;BME280;59836;52.132;5.442;2022-12-18T08:08:36;102767.06;;;-5.18;84.91
71966;BME280;59836;52.132;5.442;2022-12-18T08:11:03;102749.28;;;-5.16;85.74
71966;BME280;59836;52.132;5.442;2022-12-18T08:13:29;102742.78;;;-5.12;85.72
71966;BME280;59836;52.132;5.442;2022-12-18T08:16:00;102740.75;;;-5.08;85.25
71966;BME280;59836;52.132;5.442;2022-12-18T08:18:27;102749.06;;;-5.01;85.45
71966;BME280;59836;52.132;5.442;2022-12-18T08:20:54;102752.19;;;-4.96;85.44
71966;BME280;59836;52.132;5.442;2022-12-18T08:23:21;102758.06;;;-4.93;85.38
71966;BME280;59836;52.132;5.442;2022-12-18T08:25:48;102750.03;;;-4.91;85.98
71966;BME280;59836;52.132;5.442;2022-12-18T08:28:14;102758.47;;;-4.86;85.92
71966;BME280;59836;52.132;5.442;2022-12-18T08:30:41;102764.22;;;-4.81;86.10
71966;BME280;59836;52.132;5.442;2022-12-18T08:33:08;102776.38;;;-4.78;86.18
71966;BME280;59836;52.132;5.442;2022-12-18T08:35:36;102775.28;;;-4.76;86.05
71966;BME280;59836;52.132;5.442;2022-12-18T08:38:10;102773.97;;;-4.70;85.86
71966;BME280;59836;52.132;5.442;2022-12-18T08:40:37;102774.31;;;-4.63;86.06
71966;BME280;59836;52.132;5.442;2022-12-18T08:43:03;102780.94;;;-4.57;86.11
71966;BME280;59836;52.132;5.442;2022-12-18T08:45:48;102769.25;;;-4.55;86.08
71966;BME280;59836;52.132;5.442;2022-12-18T08:48:15;102757.72;;;-4.54;86.04
71966;BME280;59836;52.132;5.442;2022-12-18T08:50:57;102769.88;;;-4.51;86.73
71966;BME280;59836;52.132;5.442;2022-12-18T08:53:24;102764.44;;;-4.50;86.28
71966;BME280;59836;52.132;5.442;2022-12-18T08:55:50;102763.97;;;-4.43;86.03
71966;BME280;59836;52.132;5.442;2022-12-18T08:58:17;102764.56;;;-4.40;86.70
71966;BME280;59836;52.132;5.442;2022-12-18T09:00:44;102758.19;;;-4.37;86.43
71966;BME280;59836;52.132;5.442;2022-12-18T09:03:12;102772.75;;;-4.32;86.14
71966;BME280;59836;52.132;5.442;2022-12-18T09:05:39;102781.19;;;-4.26;86.63
71966;BME280;59836;52.132;5.442;2022-12-18T09:08:05;102776.22;;;-4.20;86.34
71966;BME280;59836;52.132;5.442;2022-12-18T09:10:32;102774.03;;;-4.15;86.58
71966;BME280;59836;52.132;5.442;2022-12-18T09:13:02;102759.56;;;-4.10;86.56
71966;BME280;59836;52.132;5.442;2022-12-18T09:15:29;102760.16;;;-4.07;86.49
71966;BME280;59836;52.132;5.442;2022-12-18T09:17:55;102762.44;;;-4.02;86.71
71966;BME280;59836;52.132;5.442;2022-12-18T09:20:21;102761.00;;;-3.95;86.69
71966;BME280;59836;52.132;5.442;2022-12-18T09:22:48;102753.25;;;-3.87;86.56
71966;BME280;59836;52.132;5.442;2022-12-18T09:25:15;102756.22;;;-3.80;86.98
71966;BME280;59836;52.132;5.442;2022-12-18T09:27:41;102758.50;;;-3.75;86.42
71966;BME280;59836;52.132;5.442;2022-12-18T09:30:08;102749.91;;;-3.67;86.47
71966;BME280;59836;52.132;5.442;2022-12-18T09:32:34;102761.81;;;-3.62;86.58
71966;BME280;59836;52.132;5.442;2022-12-18T09:35:01;102753.34;;;-3.56;86.69
71966;BME280;59836;52.132;5.442;2022-12-18T09:37:27;102748.50;;;-3.50;86.54
71966;BME280;59836;52.132;5.442;2022-12-18T09:39:54;102729.41;;;-3.44;86.12
71966;BME280;59836;52.132;5.442;2022-12-18T09:42:22;102737.81;;;-3.39;86.25
71966;BME280;59836;52.132;5.442;2022-12-18T09:44:52;102726.13;;;-3.36;86.14
71966;BME280;59836;52.132;5.442;2022-12-18T09:47:28;102730.19;;;-3.32;86.12
71966;BME280;59836;52.132;5.442;2022-12-18T09:50:22;102728.13;;;-3.29;86.28
71966;BME280;59836;52.132;5.442;2022-12-18T09:52:53;102720.59;;;-3.23;85.70
71966;BME280;59836;52.132;5.442;2022-12-18T09:55:29;102712.25;;;-3.19;86.26
71966;BME280;59836;52.132;5.442;2022-12-18T09:58:30;102710.88;;;-3.13;85.71
71966;BME280;59836;52.132;5.442;2022-12-18T10:00:58;102706.13;;;-3.09;85.63
71966;BME280;59836;52.132;5.442;2022-12-18T10:03:25;102710.63;;;-3.10;85.48
71966;BME280;59836;52.132;5.442;2022-12-18T10:14:27;102704.56;;;-2.91;85.40
71966;BME280;59836;52.132;5.442;2022-12-18T10:17:14;102697.63;;;-2.82;85.37
71966;BME280;59836;52.132;5.442;2022-12-18T10:20:42;102692.75;;;-2.77;85.52
71966;BME280;59836;52.132;5.442;2022-12-18T10:23:24;102696.81;;;-2.73;85.33
71966;BME280;59836;52.132;5.442;2022-12-18T10:26:06;102694.72;;;-2.69;85.23
71966;BME280;59836;52.132;5.442;2022-12-18T10:28:36;102694.59;;;-2.68;85.23
71966;BME280;59836;52.132;5.442;2022-12-18T10:31:05;102698.78;;;-2.65;85.36
71966;BME280;59836;52.132;5.442;2022-12-18T10:33:33;102696.81;;;-2.63;84.91
71966;BME280;59836;52.132;5.442;2022-12-18T10:35:59;102692.34;;;-2.62;84.94
71966;BME280;59836;52.132;5.442;2022-12-18T10:38:28;102675.44;;;-2.61;85.20
71966;BME280;59836;52.132;5.442;2022-12-18T10:41:03;102676.13;;;-2.59;84.86
71966;BME280;59836;52.132;5.442;2022-12-18T10:43:31;102687.19;;;-2.54;84.97
71966;BME280;59836;52.132;5.442;2022-12-18T10:46:07;102687.63;;;-2.49;84.98
71966;BME280;59836;52.132;5.442;2022-12-18T10:51:07;102672.81;;;-2.42;85.23
71966;BME280;59836;52.132;5.442;2022-12-18T10:53:40;102665.53;;;-2.40;84.66
71966;BME280;59836;52.132;5.442;2022-12-18T10:56:08;102669.88;;;-2.39;84.84
71966;BME280;59836;52.132;5.442;2022-12-18T10:58:36;102658.97;;;-2.35;84.55
71966;BME280;59836;52.132;5.442;2022-12-18T11:01:05;102659.41;;;-2.30;84.54
71966;BME280;59836;52.132;5.442;2022-12-18T11:03:44;102653.25;;;-2.31;84.67
71966;BME280;59836;52.132;5.442;2022-12-18T11:06:19;102652.13;;;-2.28;84.46
71966;BME280;59836;52.132;5.442;2022-12-18T11:09:05;102637.59;;;-2.24;84.47
71966;BME280;59836;52.132;5.442;2022-12-18T11:11:39;102639.25;;;-2.23;84.23
71966;BME280;59836;52.132;5.442;2022-12-18T11:14:22;102625.84;;;-2.21;83.86
71966;BME280;59836;52.132;5.442;2022-12-18T11:16:50;102622.91;;;-2.18;83.87
71966;BME280;59836;52.132;5.442;2022-12-18T11:19:39;102630.72;;;-2.17;83.89
71966;BME280;59836;52.132;5.442;2022-12-18T11:22:21;102619.13;;;-2.16;83.30
71966;BME280;59836;52.132;5.442;2022-12-18T11:24:55;102611.72;;;-2.12;83.31
71966;BME280;59836;52.132;5.442;2022-12-18T11:27:58;102598.00;;;-2.08;83.49
71966;BME280;59836;52.132;5.442;2022-12-18T11:30:31;102599.66;;;-2.06;83.38
71966;BME280;59836;52.132;5.442;2022-12-18T11:33:13;102599.38;;;-2.03;83.09
71966;BME280;59836;52.132;5.442;2022-12-18T11:38:37;102617.16;;;-1.94;82.93
71966;BME280;59836;52.132;5.442;2022-12-18T11:41:26;102610.56;;;-1.90;83.33
71966;BME280;59836;52.132;5.442;2022-12-18T11:44:22;102607.63;;;-1.87;82.99
71966;BME280;59836;52.132;5.442;2022-12-18T11:47:05;102610.00;;;-1.84;82.76
71966;BME280;59836;52.132;5.442;2022-12-18T11:49:35;102597.81;;;-1.76;82.54
71966;BME280;59836;52.132;5.442;2022-12-18T11:52:19;102599.19;;;-1.72;82.48
71966;BME280;59836;52.132;5.442;2022-12-18T11:54:51;102592.75;;;-1.70;82.43
71966;BME280;59836;52.132;5.442;2022-12-18T12:00:07;102585.44;;;-1.68;81.96
71966;BME280;59836;52.132;5.442;2022-12-18T12:08:07;102569.06;;;-1.63;81.99
71966;BME280;59836;52.132;5.442;2022-12-18T12:16:04;102544.50;;;-1.57;81.64
71966;BME280;59836;52.132;5.442;2022-12-18T12:21:27;102541.56;;;-1.54;81.38
71966;BME280;59836;52.132;5.442;2022-12-18T12:27:13;102532.31;;;-1.50;81.27
71966;BME280;59836;52.132;5.442;2022-12-18T12:35:32;102528.06;;;-1.42;81.27
71966;BME280;59836;52.132;5.442;2022-12-18T12:38:16;102526.25;;;-1.42;81.16
71966;BME280;59836;52.132;5.442;2022-12-18T12:40:54;102523.44;;;-1.40;80.79
71966;BME280;59836;52.132;5.442;2022-12-18T12:43:39;102517.97;;;-1.39;80.77
71966;BME280;59836;52.132;5.442;2022-12-18T12:46:18;102515.16;;;-1.37;80.81
71966;BME280;59836;52.132;5.442;2022-12-18T12:48:56;102499.88;;;-1.35;81.31
71966;BME280;59836;52.132;5.442;2022-12-18T12:51:26;102494.41;;;-1.34;80.99
71966;BME280;59836;52.132;5.442;2022-12-18T12:53:56;102485.59;;;-1.34;80.62
71966;BME280;59836;52.132;5.442;2022-12-18T12:56:27;102489.78;;;-1.31;80.03
71966;BME280;59836;52.132;5.442;2022-12-18T13:04:21;102479.53;;;-1.26;80.48
71966;BME280;59836;52.132;5.442;2022-12-18T13:07:10;102483.88;;;-1.25;80.52
71966;BME280;59836;52.132;5.442;2022-12-18T13:10:23;102479.91;;;-1.21;80.31
71966;BME280;59836;52.132;5.442;2022-12-18T13:18:23;102490.28;;;-1.18;80.17
71966;BME280;59836;52.132;5.442;2022-12-18T13:23:35;102485.47;;;-1.14;80.03
71966;BME280;59836;52.132;5.442;2022-12-18T13:31:01;102474.50;;;-1.11;79.76
71966;BME280;59836;52.132;5.442;2022-12-18T13:38:38;102463.56;;;-1.08;79.75
71966;BME280;59836;52.132;5.442;2022-12-18T13:43:44;102452.91;;;-1.08;79.70
71966;BME280;59836;52.132;5.442;2022-12-18T13:46:26;102449.94;;;-1.05;79.71
71966;BME280;59836;52.132;5.442;2022-12-18T13:49:02;102450.13;;;-1.07;79.58
71966;BME280;59836;52.132;5.442;2022-12-18T13:51:31;102441.97;;;-1.05;79.55
71966;BME280;59836;52.132;5.442;2022-12-18T13:54:01;102435.47;;;-1.02;79.55
71966;BME280;59836;52.132;5.442;2022-12-18T13:56:31;102431.00;;;-1.02;79.23
71966;BME280;59836;52.132;5.442;2022-12-18T14:06:46;102419.06;;;-0.98;79.19
71966;BME280;59836;52.132;5.442;2022-12-18T14:09:16;102411.06;;;-0.98;78.85
71966;BME280;59836;52.132;5.442;2022-12-18T14:11:48;102412.75;;;-0.97;78.93
71966;BME280;59836;52.132;5.442;2022-12-18T14:14:17;102408.25;;;-0.96;79.06
71966;BME280;59836;52.132;5.442;2022-12-18T14:16:46;102409.09;;;-0.96;79.27
71966;BME280;59836;52.132;5.442;2022-12-18T14:19:17;102401.09;;;-0.96;78.77
71966;BME280;59836;52.132;5.442;2022-12-18T14:21:48;102395.59;;;-0.94;78.59
71966;BME280;59836;52.132;5.442;2022-12-18T14:24:21;102396.47;;;-0.94;78.71
71966;BME280;59836;52.132;5.442;2022-12-18T14:26:49;102398.25;;;-0.94;78.48
71966;BME280;59836;52.132;5.442;2022-12-18T14:29:23;102387.47;;;-0.93;78.64
71966;BME280;59836;52.132;5.442;2022-12-18T14:32:09;102382.16;;;-0.93;78.62
71966;BME280;59836;52.132;5.442;2022-12-18T14:34:50;102382.16;;;-0.93;78.23
71966;BME280;59836;52.132;5.442;2022-12-18T14:37:21;102373.16;;;-0.92;78.22